createdAt,value
2017-12-01T00:00:08.749Z,3.80
2017-12-01T00:06:08.957Z,3.60
2017-12-01T00:08:50.946Z,3.50
2017-12-01T00:11:27.917Z,3.60
2017-12-01T00:14:02.558Z,3.50
2017-12-01T00:16:41.781Z,3.60
2017-12-01T00:19:19.679Z,3.40
2017-12-01T00:21:51.837Z,3.40
2017-12-01T00:24:31.195Z,3.40
2017-12-01T00:27:21.113Z,3.40
2017-12-01T00:29:53.188Z,3.40
2017-12-01T00:32:25.878Z,3.30
2017-12-01T00:35:15.309Z,3.20
2017-12-01T00:37:53.900Z,3.20
2017-12-01T00:40:26.746Z,3.20
2017-12-01T00:43:00.725Z,3.30
2017-12-01T00:45:32.828Z,3.30
2017-12-01T00:48:20.977Z,3.30
2017-12-01T00:50:57.376Z,3.40
2017-12-01T00:53:34.122Z,3.30
2017-12-01T00:56:16.442Z,3.30
2017-12-01T00:58:56.166Z,3.20
2017-12-01T01:01:32.550Z,3.20
2017-12-01T01:04:06.040Z,3.20
2017-12-01T01:06:45.287Z,3.20
2017-12-01T01:09:28.453Z,3.40
2017-12-01T01:12:21.278Z,3.40
2017-12-01T01:14:59.210Z,3.40
2017-12-01T01:20:43.147Z,3.50
2017-12-01T01:30:53.913Z,3.80
2017-12-01T01:33:33.176Z,3.60
2017-12-01T01:36:13.751Z,3.60
2017-12-01T01:39:15.656Z,3.60
2017-12-01T01:42:07.049Z,3.70
2017-12-01T01:44:44.978Z,3.60
2017-12-01T01:47:17.186Z,3.60
2017-12-01T01:49:50.669Z,3.50
2017-12-01T01:52:23.558Z,3.50
2017-12-01T01:55:11.161Z,3.50
2017-12-01T02:00:46.643Z,3.50
2017-12-01T02:03:23.728Z,3.50
2017-12-01T02:06:13.908Z,3.50
2017-12-01T02:08:52.530Z,3.50
2017-12-01T02:11:23.850Z,3.50
2017-12-01T02:13:57.219Z,3.50
2017-12-01T02:16:53.988Z,3.60
2017-12-01T02:19:26.258Z,3.70
2017-12-01T02:21:58.696Z,3.90
2017-12-01T02:24:30.756Z,4.00
2017-12-01T02:27:02.101Z,4.00
2017-12-01T02:29:40.277Z,4.00
2017-12-01T02:32:12.623Z,4.10
2017-12-01T02:34:44.796Z,4.10
2017-12-01T02:37:19.943Z,4.00
2017-12-01T02:39:51.161Z,4.10
2017-12-01T02:42:32.463Z,4.10
2017-12-01T02:45:13.878Z,4.20
2017-12-01T02:47:54.398Z,4.20
2017-12-01T02:50:26.673Z,4.20
2017-12-01T02:53:11.819Z,4.20
2017-12-01T02:55:45.065Z,4.10
2017-12-01T02:58:17.113Z,4.10
2017-12-01T03:00:48.822Z,4.20
2017-12-01T03:03:30.735Z,4.20
2017-12-01T03:06:04.855Z,4.10
2017-12-01T03:08:39.869Z,4.10
2017-12-01T03:11:13.520Z,4.10
2017-12-01T03:13:45.662Z,4.10
2017-12-01T03:16:19.991Z,4.10
2017-12-01T03:18:52.871Z,4.10
2017-12-01T03:21:25.989Z,4.10
2017-12-01T03:24:01.175Z,4.10
2017-12-01T03:26:34.194Z,4.10
2017-12-01T03:29:05.657Z,4.00
2017-12-01T03:31:36.761Z,3.90
2017-12-01T03:34:08.255Z,4.00
2017-12-01T03:36:42.137Z,3.90
2017-12-01T03:39:14.755Z,3.90
2017-12-01T03:41:46.695Z,3.80
2017-12-01T03:44:21.039Z,3.80
2017-12-01T03:46:57.590Z,3.80
2017-12-01T03:49:28.577Z,3.70
2017-12-01T03:52:00.044Z,3.70
2017-12-01T03:54:31.082Z,3.80
2017-12-01T03:57:04.200Z,3.80
2017-12-01T03:59:34.692Z,3.80
2017-12-01T04:02:06.470Z,3.70
2017-12-01T04:04:37.444Z,3.70
2017-12-01T04:07:08.662Z,3.80
2017-12-01T04:09:40.441Z,3.60
2017-12-01T04:12:12.480Z,3.50
2017-12-01T04:14:45.200Z,3.50
2017-12-01T04:17:16.166Z,3.50
2017-12-01T04:19:47.253Z,3.50
2017-12-01T04:22:18.794Z,3.60
2017-12-01T04:24:51.111Z,3.60
2017-12-01T04:27:23.834Z,3.60
2017-12-01T04:29:55.352Z,3.70
2017-12-01T04:32:26.170Z,3.70
2017-12-01T04:34:57.333Z,3.60
2017-12-01T04:37:30.547Z,3.60
2017-12-01T04:40:01.522Z,3.60
2017-12-01T04:42:33.709Z,3.60
2017-12-01T04:45:16.409Z,3.60
2017-12-01T04:47:49.840Z,3.60
2017-12-01T04:50:26.355Z,3.60
2017-12-01T04:53:00.485Z,3.50
2017-12-01T04:55:34.398Z,3.40
2017-12-01T04:58:06.322Z,3.40
2017-12-01T05:00:40.230Z,3.40
2017-12-01T05:03:16.383Z,3.40
2017-12-01T05:05:49.912Z,3.40
2017-12-01T05:08:22.550Z,3.50
2017-12-01T05:10:56.108Z,3.50
2017-12-01T05:13:29.241Z,3.60
2017-12-01T05:16:03.156Z,3.70
2017-12-01T05:18:40.807Z,3.70
2017-12-01T05:21:12.284Z,3.70
2017-12-01T05:23:45.645Z,3.70
2017-12-01T05:26:25.988Z,3.80
2017-12-01T05:28:58.491Z,3.70
2017-12-01T05:31:33.092Z,3.80
2017-12-01T05:34:04.918Z,3.80
2017-12-01T05:36:41.922Z,3.80
2017-12-01T05:42:41.583Z,3.70
2017-12-01T05:45:16.024Z,3.80
2017-12-01T05:47:50.291Z,3.70
2017-12-01T05:50:22.460Z,3.80
2017-12-01T05:52:58.288Z,3.80
2017-12-01T05:55:30.888Z,3.80
2017-12-01T05:58:11.231Z,3.90
2017-12-01T06:00:49.172Z,3.90
2017-12-01T06:03:20.782Z,3.80
2017-12-01T06:05:56.701Z,3.60
2017-12-01T06:08:31.502Z,3.60
2017-12-01T06:11:10.630Z,3.60
2017-12-01T06:13:42.897Z,3.60
2017-12-01T06:16:18.989Z,3.60
2017-12-01T06:18:52.523Z,3.70
2017-12-01T06:21:31.071Z,3.60
2017-12-01T06:24:13.022Z,3.60
2017-12-01T06:26:44.372Z,3.60
2017-12-01T06:29:16.751Z,3.60
2017-12-01T06:32:05.080Z,3.70
2017-12-01T06:34:52.627Z,3.70
2017-12-01T06:37:35.260Z,3.70
2017-12-01T06:40:08.838Z,3.70
2017-12-01T06:42:41.922Z,3.80
2017-12-01T06:45:14.328Z,3.60
2017-12-01T06:47:45.868Z,3.60
2017-12-01T06:50:19.793Z,3.70
2017-12-01T06:52:53.178Z,3.70
2017-12-01T06:55:27.476Z,3.80
2017-12-01T06:57:59.439Z,3.80
2017-12-01T07:00:31.170Z,3.80
2017-12-01T07:03:30.996Z,3.70
2017-12-01T07:08:56.511Z,3.80
2017-12-01T07:11:33.318Z,3.80
2017-12-01T07:14:04.757Z,3.70
2017-12-01T07:16:37.782Z,3.70
2017-12-01T07:19:14.432Z,3.70
2017-12-01T07:21:47.340Z,3.70
2017-12-01T07:24:20.532Z,3.80
2017-12-01T07:27:13.982Z,3.80
2017-12-01T07:29:50.013Z,3.80
2017-12-01T07:32:24.918Z,3.80
2017-12-01T07:34:57.223Z,3.90
2017-12-01T07:37:32.155Z,3.90
2017-12-01T07:40:05.483Z,4.00
2017-12-01T07:42:43.177Z,3.90
2017-12-01T07:45:18.129Z,3.80
2017-12-01T07:47:49.640Z,3.80
2017-12-01T07:50:41.375Z,3.90
2017-12-01T07:53:15.023Z,4.00
2017-12-01T07:55:49.105Z,4.00
2017-12-01T07:58:26.189Z,4.00
2017-12-01T08:00:59.971Z,4.10
2017-12-01T08:03:31.190Z,4.20
2017-12-01T08:06:03.661Z,4.10
2017-12-01T08:08:39.738Z,4.10
2017-12-01T08:17:55.465Z,4.30
2017-12-01T08:20:26.450Z,4.40
2017-12-01T08:22:57.848Z,4.40
2017-12-01T08:25:29.090Z,4.40
2017-12-01T08:28:01.806Z,4.50
2017-12-01T08:30:35.494Z,4.50
2017-12-01T08:33:05.698Z,4.40
2017-12-01T08:35:35.771Z,4.50
2017-12-01T08:38:05.912Z,4.50
2017-12-01T08:40:36.011Z,4.40
2017-12-01T08:43:06.381Z,4.50
2017-12-01T08:45:37.312Z,4.60
2017-12-01T08:48:08.204Z,4.70
2017-12-01T08:50:38.630Z,4.70
2017-12-01T08:53:16.468Z,4.80
2017-12-01T08:55:48.391Z,4.80
2017-12-01T08:58:18.505Z,4.80
2017-12-01T09:00:48.747Z,4.90
2017-12-01T09:03:22.820Z,5.10
2017-12-01T09:05:56.409Z,5.00
2017-12-01T09:08:27.037Z,4.90
2017-12-01T09:10:57.281Z,4.90
2017-12-01T09:13:27.530Z,4.70
2017-12-01T09:15:58.120Z,4.80
2017-12-01T09:18:28.236Z,4.70
2017-12-01T09:20:58.550Z,4.60
2017-12-01T09:23:29.981Z,4.60
2017-12-01T09:26:01.380Z,4.80
2017-12-01T09:28:31.742Z,4.80
2017-12-01T09:31:02.100Z,4.90
2017-12-01T09:33:32.274Z,5.00
2017-12-01T09:36:02.415Z,4.90
2017-12-01T09:38:33.228Z,4.90
2017-12-01T09:41:03.599Z,4.90
2017-12-01T09:43:37.673Z,5.10
2017-12-01T09:46:11.454Z,5.10
2017-12-01T09:48:43.890Z,5.10
2017-12-01T09:51:15.534Z,5.10
2017-12-01T09:53:51.379Z,5.00
2017-12-01T09:56:22.887Z,5.10
2017-12-01T09:58:56.324Z,5.10
2017-12-01T10:01:27.390Z,5.10
2017-12-01T10:03:58.467Z,5.00
2017-12-01T10:06:29.325Z,4.90
2017-12-01T10:08:59.867Z,5.00
2017-12-01T10:11:30.057Z,5.20
2017-12-01T10:14:00.100Z,5.40
2017-12-01T10:16:32.124Z,5.50
2017-12-01T10:19:02.212Z,5.50
2017-12-01T10:21:33.434Z,5.90
2017-12-01T10:24:03.713Z,5.90
2017-12-01T10:26:35.542Z,5.90
2017-12-01T10:29:06.970Z,5.70
2017-12-01T10:31:37.218Z,5.70
2017-12-01T10:34:08.172Z,6.00
2017-12-01T10:36:38.643Z,6.00
2017-12-01T10:39:09.127Z,6.20
2017-12-01T10:41:42.984Z,6.40
2017-12-01T10:44:15.731Z,6.50
2017-12-01T10:46:45.958Z,6.70
2017-12-01T10:49:16.552Z,6.60
2017-12-01T10:51:50.707Z,6.70
2017-12-01T10:54:20.985Z,6.70
2017-12-01T10:56:51.960Z,6.90
2017-12-01T10:59:22.612Z,6.90
2017-12-01T11:01:52.977Z,7.00
2017-12-01T11:04:24.680Z,6.90
2017-12-01T11:06:54.993Z,6.90
2017-12-01T11:09:25.122Z,7.00
2017-12-01T11:11:55.617Z,6.90
2017-12-01T11:14:26.795Z,6.40
2017-12-01T11:16:57.054Z,6.40
2017-12-01T11:19:28.027Z,6.30
2017-12-01T11:22:00.792Z,6.20
2017-12-01T11:24:31.893Z,6.00
2017-12-01T11:27:03.017Z,6.00
2017-12-01T11:29:35.190Z,5.90
2017-12-01T11:32:06.015Z,5.90
2017-12-01T11:34:37.859Z,6.00
2017-12-01T11:37:08.944Z,5.90
2017-12-01T11:39:45.031Z,5.90
2017-12-01T11:42:19.068Z,6.00
2017-12-01T11:44:49.432Z,5.90
2017-12-01T11:47:19.686Z,5.80
2017-12-01T11:49:50.075Z,5.70
2017-12-01T11:52:26.889Z,5.60
2017-12-01T11:55:02.643Z,5.70
2017-12-01T11:57:34.031Z,5.60
2017-12-01T12:00:05.438Z,5.60
2017-12-01T12:02:40.542Z,5.60
2017-12-01T12:05:14.313Z,5.80
2017-12-01T12:07:47.354Z,6.10
2017-12-01T12:10:17.821Z,6.10
2017-12-01T12:12:49.161Z,6.20
2017-12-01T12:15:20.915Z,6.40
2017-12-01T12:17:52.013Z,6.60
2017-12-01T12:20:22.457Z,6.60
2017-12-01T12:22:53.194Z,6.70
2017-12-01T12:25:23.480Z,6.60
2017-12-01T12:27:58.480Z,6.30
2017-12-01T12:30:40.666Z,6.20
2017-12-01T12:35:55.637Z,6.40
2017-12-01T12:38:26.674Z,6.50
2017-12-01T12:40:57.098Z,6.60
2017-12-01T12:43:28.183Z,6.60
2017-12-01T12:46:06.339Z,6.70
2017-12-01T12:48:37.470Z,6.60
2017-12-01T12:51:16.734Z,6.70
2017-12-01T12:53:53.365Z,6.70
2017-12-01T12:56:24.591Z,6.70
2017-12-01T12:58:55.998Z,6.30
2017-12-01T13:01:26.644Z,6.30
2017-12-01T13:03:59.645Z,6.00
2017-12-01T13:06:31.920Z,5.70
2017-12-01T13:09:10.499Z,5.70
2017-12-01T13:11:42.624Z,5.90
2017-12-01T13:14:15.477Z,5.80
2017-12-01T13:16:47.737Z,6.00
2017-12-01T13:19:19.330Z,6.30
2017-12-01T13:21:50.585Z,6.50
2017-12-01T13:24:25.188Z,6.50
2017-12-01T13:27:01.115Z,6.60
2017-12-01T13:29:35.874Z,6.60
2017-12-01T13:32:06.309Z,6.40
2017-12-01T13:34:38.470Z,6.40
2017-12-01T13:37:09.373Z,6.30
2017-12-01T13:39:39.550Z,6.30
2017-12-01T13:42:10.445Z,6.20
2017-12-01T13:44:40.654Z,6.30
2017-12-01T13:47:11.086Z,6.50
2017-12-01T13:49:44.876Z,7.00
2017-12-01T13:52:19.265Z,7.90
2017-12-01T13:54:54.495Z,8.90
2017-12-01T13:57:24.810Z,9.60
2017-12-01T13:59:55.820Z,9.80
2017-12-01T14:02:26.620Z,9.80
2017-12-01T14:04:57.849Z,9.70
2017-12-01T14:07:28.033Z,9.30
2017-12-01T14:09:59.369Z,7.80
2017-12-01T14:12:29.971Z,7.80
2017-12-01T14:15:00.156Z,7.30
2017-12-01T14:17:31.989Z,6.70
2017-12-01T14:20:06.143Z,6.70
2017-12-01T14:22:40.294Z,6.40
2017-12-01T14:25:12.187Z,6.10
2017-12-01T14:27:42.925Z,6.00
2017-12-01T14:30:14.630Z,6.10
2017-12-01T14:32:45.863Z,6.00
2017-12-01T14:35:19.170Z,5.90
2017-12-01T14:37:49.632Z,5.80
2017-12-01T14:40:19.948Z,5.80
2017-12-01T14:42:50.012Z,5.80
2017-12-01T14:45:20.138Z,5.80
2017-12-01T14:47:50.615Z,5.80
2017-12-01T14:50:20.752Z,5.60
2017-12-01T14:52:50.899Z,5.60
2017-12-01T14:55:22.709Z,5.50
2017-12-01T14:57:53.533Z,5.40
2017-12-01T15:00:28.640Z,5.30
2017-12-01T15:03:02.316Z,5.20
2017-12-01T15:05:43.517Z,5.10
2017-12-01T15:08:24.363Z,5.10
2017-12-01T15:10:55.979Z,5.10
2017-12-01T15:13:26.342Z,5.10
2017-12-01T15:15:57.211Z,5.00
2017-12-01T15:18:27.419Z,5.00
2017-12-01T15:20:58.391Z,5.00
2017-12-01T15:23:28.570Z,5.00
2017-12-01T15:25:59.610Z,5.00
2017-12-01T15:28:31.078Z,5.00
2017-12-01T15:31:01.208Z,5.00
2017-12-01T15:33:31.470Z,5.00
2017-12-01T15:36:07.245Z,5.10
2017-12-01T15:38:38.932Z,5.20
2017-12-01T15:41:09.695Z,5.20
2017-12-01T15:43:39.896Z,5.30
2017-12-01T15:46:12.460Z,5.30
2017-12-01T15:48:45.764Z,5.30
2017-12-01T15:51:15.931Z,5.30
2017-12-01T15:53:46.043Z,5.30
2017-12-01T15:56:16.959Z,5.30
2017-12-01T15:58:53.516Z,5.40
2017-12-01T16:01:25.389Z,5.50
2017-12-01T16:03:58.138Z,5.50
2017-12-01T16:06:28.408Z,5.50
2017-12-01T16:08:58.588Z,5.60
2017-12-01T16:11:28.946Z,5.70
2017-12-01T16:13:59.984Z,5.70
2017-12-01T16:16:30.367Z,5.60
2017-12-01T16:19:01.582Z,5.40
2017-12-01T16:21:32.674Z,5.40
2017-12-01T16:24:07.186Z,5.40
2017-12-01T16:26:41.943Z,5.40
2017-12-01T16:29:12.437Z,5.50
2017-12-01T16:31:43.953Z,5.40
2017-12-01T16:34:14.144Z,5.40
2017-12-01T16:36:44.372Z,5.60
2017-12-01T16:39:15.167Z,5.70
2017-12-01T16:41:47.013Z,6.00
2017-12-01T16:44:18.307Z,5.90
2017-12-01T16:46:48.800Z,6.10
2017-12-01T16:49:19.777Z,5.80
2017-12-01T16:51:53.042Z,5.80
2017-12-01T16:54:28.786Z,5.70
2017-12-01T16:56:59.067Z,5.70
2017-12-01T16:59:29.317Z,5.70
2017-12-01T17:02:00.106Z,5.50
2017-12-01T17:04:30.426Z,5.60
2017-12-01T17:07:00.966Z,5.60
2017-12-01T17:09:31.780Z,5.50
2017-12-01T17:12:02.680Z,5.60
2017-12-01T17:14:33.917Z,5.70
2017-12-01T17:17:04.529Z,5.60
2017-12-01T17:19:35.092Z,5.70
2017-12-01T17:22:07.031Z,5.90
2017-12-01T17:24:38.408Z,5.70
2017-12-01T17:27:08.666Z,5.70
2017-12-01T17:29:39.549Z,5.70
2017-12-01T17:32:10.712Z,5.70
2017-12-01T17:34:41.908Z,5.60
2017-12-01T17:37:12.291Z,5.60
2017-12-01T17:39:45.735Z,5.70
2017-12-01T17:42:16.619Z,5.80
2017-12-01T17:44:54.206Z,5.70
2017-12-01T17:47:24.940Z,5.70
2017-12-01T17:49:55.376Z,5.80
2017-12-01T17:52:25.902Z,6.00
2017-12-01T17:54:58.819Z,6.00
2017-12-01T17:57:29.183Z,6.00
2017-12-01T18:00:02.474Z,6.00
2017-12-01T18:02:39.458Z,6.00
2017-12-01T18:05:12.643Z,6.00
2017-12-01T18:07:48.746Z,6.00
2017-12-01T18:10:24.328Z,5.90
2017-12-01T18:12:57.228Z,5.90
2017-12-01T18:15:27.895Z,5.80
2017-12-01T18:17:59.415Z,5.80
2017-12-01T18:20:29.813Z,5.90
2017-12-01T18:22:59.993Z,5.90
2017-12-01T18:25:37.892Z,5.90
2017-12-01T18:28:10.575Z,5.80
2017-12-01T18:30:45.499Z,5.90
2017-12-01T18:33:19.427Z,5.80
2017-12-01T18:35:50.698Z,5.80
2017-12-01T18:38:21.070Z,5.80
2017-12-01T18:40:55.622Z,5.90
2017-12-01T18:43:25.817Z,6.00
2017-12-01T18:46:00.787Z,6.00
2017-12-01T18:48:35.428Z,6.00
2017-12-01T18:51:05.929Z,5.80
2017-12-01T18:53:41.243Z,5.90
2017-12-01T18:56:15.702Z,5.80
2017-12-01T18:58:47.775Z,5.80
2017-12-01T19:01:20.210Z,5.70
2017-12-01T19:03:59.437Z,5.50
2017-12-01T19:06:36.867Z,5.20
2017-12-01T19:09:12.103Z,5.50
2017-12-01T19:11:43.816Z,5.40
2017-12-01T19:14:14.504Z,5.30
2017-12-01T19:16:46.504Z,5.30
2017-12-01T19:19:16.886Z,5.40
2017-12-01T19:21:47.552Z,5.50
2017-12-01T19:24:20.546Z,5.40
2017-12-01T19:26:51.219Z,5.50
2017-12-01T19:29:22.419Z,5.60
2017-12-01T19:31:52.772Z,5.60
2017-12-01T19:34:23.757Z,5.50
2017-12-01T19:36:58.484Z,5.30
2017-12-01T19:39:28.972Z,5.20
2017-12-01T19:41:59.496Z,5.20
2017-12-01T19:44:29.791Z,5.10
2017-12-01T19:47:00.433Z,5.00
2017-12-01T19:49:30.666Z,5.00
2017-12-01T19:52:01.918Z,4.90
2017-12-01T19:54:36.295Z,4.90
2017-12-01T19:57:07.938Z,4.80
2017-12-01T19:59:38.852Z,4.80
2017-12-01T20:02:09.506Z,4.60
2017-12-01T20:04:40.076Z,4.70
2017-12-01T20:07:10.844Z,4.80
2017-12-01T20:09:41.900Z,4.90
2017-12-01T20:12:17.270Z,4.90
2017-12-01T20:14:54.557Z,4.90
2017-12-01T20:17:27.388Z,5.00
2017-12-01T20:19:58.268Z,4.90
2017-12-01T20:22:28.574Z,4.90
2017-12-01T20:24:58.931Z,4.80
2017-12-01T20:27:29.805Z,4.90
2017-12-01T20:30:01.860Z,4.90
2017-12-01T20:32:33.402Z,4.90
2017-12-01T20:35:04.529Z,4.90
2017-12-01T20:37:36.820Z,4.90
2017-12-01T20:40:07.434Z,4.90
2017-12-01T20:42:37.539Z,4.90
2017-12-01T20:45:07.929Z,4.90
2017-12-01T20:47:39.958Z,4.70
2017-12-01T20:50:10.763Z,4.70
2017-12-01T20:52:41.922Z,4.90
2017-12-01T20:55:12.487Z,4.90
2017-12-01T20:57:42.794Z,4.90
2017-12-01T21:00:13.275Z,4.90
2017-12-01T21:02:45.837Z,5.20
2017-12-01T21:05:16.615Z,5.20
2017-12-01T21:07:50.319Z,5.10
2017-12-01T21:10:21.314Z,4.90
2017-12-01T21:12:52.114Z,5.00
2017-12-01T21:15:22.674Z,5.00
2017-12-01T21:17:53.087Z,5.10
2017-12-01T21:20:23.651Z,5.10
2017-12-01T21:22:55.657Z,5.20
2017-12-01T21:25:26.080Z,5.20
2017-12-01T21:27:56.354Z,5.20
2017-12-01T21:30:27.026Z,5.20
2017-12-01T21:32:57.236Z,5.20
2017-12-01T21:35:27.492Z,5.20
2017-12-01T21:37:58.232Z,5.30
2017-12-01T21:40:29.815Z,5.30
2017-12-01T21:43:00.093Z,5.10
2017-12-01T21:45:31.828Z,5.10
2017-12-01T21:48:05.709Z,5.10
2017-12-01T21:50:37.090Z,5.10
2017-12-01T21:53:09.082Z,5.10
2017-12-01T22:49:18.100Z,5.20
2017-12-01T22:51:49.253Z,4.90
2017-12-01T22:54:21.269Z,4.90
2017-12-01T22:56:55.572Z,4.80
2017-12-01T22:59:26.103Z,4.80
2017-12-01T23:02:11.784Z,4.70
2017-12-01T23:04:44.288Z,4.70
2017-12-01T23:07:16.228Z,4.70
2017-12-01T23:09:47.526Z,4.70
2017-12-01T23:12:28.424Z,4.70
2017-12-01T23:15:04.267Z,4.70
2017-12-01T23:17:46.254Z,4.60
2017-12-01T23:20:17.899Z,4.40
2017-12-01T23:22:48.923Z,4.30
2017-12-01T23:25:21.880Z,4.20
2017-12-01T23:27:53.368Z,4.30
2017-12-01T23:30:26.624Z,4.20
2017-12-01T23:32:58.319Z,4.30
2017-12-01T23:35:32.004Z,4.30
2017-12-01T23:38:02.606Z,4.40
2017-12-01T23:40:36.056Z,4.40
2017-12-01T23:43:06.977Z,4.50
2017-12-01T23:45:43.145Z,4.40
2017-12-01T23:48:18.922Z,4.50
2017-12-01T23:50:50.541Z,4.50
2017-12-01T23:53:21.739Z,4.60
2017-12-01T23:55:53.394Z,4.60
2017-12-01T23:58:30.451Z,4.50
